sensor_id;sensor_type;location;lat;lon;timestamp;temperature;humidity
18506;DHT22;9382;53.242;10.438;2022-11-22T00:00:08;-0.20;99.90
18506;DHT22;9382;53.242;10.438;2022-11-22T00:02:35;-0.20;99.90
18506;DHT22;9382;53.242;10.438;2022-11-22T00:05:03;-0.20;99.90
18506;DHT22;9382;53.242;10.438;2022-11-22T00:07:30;-0.20;99.90
18506;DHT22;9382;53.242;10.438;2022-11-22T00:09:57;-0.20;99.90
18506;DHT22;9382;53.242;10.438;2022-11-22T00:12:23;-0.20;99.90
18506;DHT22;9382;53.242;10.438;2022-11-22T00:14:50;-0.20;99.90
18506;DHT22;9382;53.242;10.438;2022-11-22T00:17:17;-0.10;99.90
18506;DHT22;9382;53.242;10.438;2022-11-22T00:19:43;-0.10;99.90
18506;DHT22;9382;53.242;10.438;2022-11-22T00:22:11;-0.10;99.90
18506;DHT22;9382;53.242;10.438;2022-11-22T00:24:38;-0.10;99.90
18506;DHT22;9382;53.242;10.438;2022-11-22T00:27:05;-0.10;99.90
18506;DHT22;9382;53.242;10.438;2022-11-22T00:29:32;-0.10;99.90
18506;DHT22;9382;53.242;10.438;2022-11-22T00:31:58;0.00;99.90
18506;DHT22;9382;53.242;10.438;2022-11-22T00:34:25;0.00;99.90
18506;DHT22;9382;53.242;10.438;2022-11-22T00:36:52;-0.10;99.90
18506;DHT22;9382;53.242;10.438;2022-11-22T00:39:20;0.00;99.90
18506;DHT22;9382;53.242;10.438;2022-11-22T00:41:46;0.00;99.90
18506;DHT22;9382;53.242;10.438;2022-11-22T00:44:13;0.00;99.90
18506;DHT22;9382;53.242;10.438;2022-11-22T00:46:40;0.00;99.90
18506;DHT22;9382;53.242;10.438;2022-11-22T00:49:07;0.00;99.90
18506;DHT22;9382;53.242;10.438;2022-11-22T00:51:33;0.00;99.90
18506;DHT22;9382;53.242;10.438;2022-11-22T00:54:00;0.00;99.90
18506;DHT22;9382;53.242;10.438;2022-11-22T00:56:28;0.00;99.90
18506;DHT22;9382;53.242;10.438;2022-11-22T00:58:56;0.10;99.90
18506;DHT22;9382;53.242;10.438;2022-11-22T01:01:23;0.10;99.90
18506;DHT22;9382;53.242;10.438;2022-11-22T01:03:50;0.10;99.90
18506;DHT22;9382;53.242;10.438;2022-11-22T01:06:16;0.10;99.90
18506;DHT22;9382;53.242;10.438;2022-11-22T01:08:43;0.10;99.90
18506;DHT22;9382;53.242;10.438;2022-11-22T01:11:10;0.10;99.90
18506;DHT22;9382;53.242;10.438;2022-11-22T01:13:39;0.10;99.90
18506;DHT22;9382;53.242;10.438;2022-11-22T01:16:07;0.10;99.90
18506;DHT22;9382;53.242;10.438;2022-11-22T01:18:34;0.20;99.90
18506;DHT22;9382;53.242;10.438;2022-11-22T01:21:01;0.20;99.90
18506;DHT22;9382;53.242;10.438;2022-11-22T01:23:28;0.20;99.90
18506;DHT22;9382;53.242;10.438;2022-11-22T01:25:55;0.20;99.90
18506;DHT22;9382;53.242;10.438;2022-11-22T01:28:22;0.20;99.90
18506;DHT22;9382;53.242;10.438;2022-11-22T01:30:51;0.20;99.90
18506;DHT22;9382;53.242;10.438;2022-11-22T01:33:18;0.20;99.90
18506;DHT22;9382;53.242;10.438;2022-11-22T01:35:45;0.20;99.90
18506;DHT22;9382;53.242;10.438;2022-11-22T01:38:12;0.20;99.90
18506;DHT22;9382;53.242;10.438;2022-11-22T01:40:39;0.20;99.90
18506;DHT22;9382;53.242;10.438;2022-11-22T01:43:13;0.20;99.90
18506;DHT22;9382;53.242;10.438;2022-11-22T01:45:46;0.20;99.90
18506;DHT22;9382;53.242;10.438;2022-11-22T01:48:41;0.20;99.90
18506;DHT22;9382;53.242;10.438;2022-11-22T01:51:15;0.20;99.90
18506;DHT22;9382;53.242;10.438;2022-11-22T01:53:44;0.30;99.90
18506;DHT22;9382;53.242;10.438;2022-11-22T01:56:13;0.30;99.90
18506;DHT22;9382;53.242;10.438;2022-11-22T01:58:43;0.30;99.90
18506;DHT22;9382;53.242;10.438;2022-11-22T02:01:12;0.30;99.90
18506;DHT22;9382;53.242;10.438;2022-11-22T02:03:43;0.30;99.90
18506;DHT22;9382;53.242;10.438;2022-11-22T02:06:11;0.30;99.90
18506;DHT22;9382;53.242;10.438;2022-11-22T02:08:44;0.30;99.90
18506;DHT22;9382;53.242;10.438;2022-11-22T02:11:13;0.30;99.90
18506;DHT22;9382;53.242;10.438;2022-11-22T02:13:41;0.30;99.90
18506;DHT22;9382;53.242;10.438;2022-11-22T02:16:09;0.30;99.90
18506;DHT22;9382;53.242;10.438;2022-11-22T02:18:37;0.30;99.90
18506;DHT22;9382;53.242;10.438;2022-11-22T02:21:06;0.30;99.90
18506;DHT22;9382;53.242;10.438;2022-11-22T02:23:42;0.30;99.90
18506;DHT22;9382;53.242;10.438;2022-11-22T02:26:11;0.30;99.90
18506;DHT22;9382;53.242;10.438;2022-11-22T02:28:39;0.30;99.90
18506;DHT22;9382;53.242;10.438;2022-11-22T02:31:06;0.40;99.90
18506;DHT22;9382;53.242;10.438;2022-11-22T02:33:33;0.30;99.90
18506;DHT22;9382;53.242;10.438;2022-11-22T02:36:00;0.30;99.90
18506;DHT22;9382;53.242;10.438;2022-11-22T02:38:30;0.30;99.90
18506;DHT22;9382;53.242;10.438;2022-11-22T02:41:00;0.30;99.90
18506;DHT22;9382;53.242;10.438;2022-11-22T02:43:33;0.30;99.90
18506;DHT22;9382;53.242;10.438;2022-11-22T02:46:03;0.30;99.90
18506;DHT22;9382;53.242;10.438;2022-11-22T02:48:30;0.30;99.90
18506;DHT22;9382;53.242;10.438;2022-11-22T02:50:57;0.30;99.90
18506;DHT22;9382;53.242;10.438;2022-11-22T02:53:24;0.30;99.90
18506;DHT22;9382;53.242;10.438;2022-11-22T02:55:50;0.30;99.90
18506;DHT22;9382;53.242;10.438;2022-11-22T02:58:17;0.30;99.90
18506;DHT22;9382;53.242;10.438;2022-11-22T03:00:45;0.40;99.90
18506;DHT22;9382;53.242;10.438;2022-11-22T03:03:12;0.40;99.90
18506;DHT22;9382;53.242;10.438;2022-11-22T03:05:39;0.40;99.90
18506;DHT22;9382;53.242;10.438;2022-11-22T03:08:05;0.30;99.90
18506;DHT22;9382;53.242;10.438;2022-11-22T03:10:32;0.30;99.90
18506;DHT22;9382;53.242;10.438;2022-11-22T03:12:59;0.40;99.90
18506;DHT22;9382;53.242;10.438;2022-11-22T03:15:26;0.40;99.90
18506;DHT22;9382;53.242;10.438;2022-11-22T03:17:57;0.30;99.90
18506;DHT22;9382;53.242;10.438;2022-11-22T03:20:24;0.30;99.90
18506;DHT22;9382;53.242;10.438;2022-11-22T03:22:51;0.40;99.90
18506;DHT22;9382;53.242;10.438;2022-11-22T03:25:18;0.40;99.90
18506;DHT22;9382;53.242;10.438;2022-11-22T03:27:44;0.30;99.90
18506;DHT22;9382;53.242;10.438;2022-11-22T03:30:12;0.30;99.90
18506;DHT22;9382;53.242;10.438;2022-11-22T03:32:39;0.30;99.90
18506;DHT22;9382;53.242;10.438;2022-11-22T03:35:08;0.40;99.90
18506;DHT22;9382;53.242;10.438;2022-11-22T03:37:35;0.40;99.90
18506;DHT22;9382;53.242;10.438;2022-11-22T03:40:02;0.40;99.90
18506;DHT22;9382;53.242;10.438;2022-11-22T03:42:29;0.40;99.90
18506;DHT22;9382;53.242;10.438;2022-11-22T03:44:56;0.40;99.90
18506;DHT22;9382;53.242;10.438;2022-11-22T03:47:23;0.50;99.90
18506;DHT22;9382;53.242;10.438;2022-11-22T03:49:49;0.40;99.90
18506;DHT22;9382;53.242;10.438;2022-11-22T03:52:17;0.40;99.90
18506;DHT22;9382;53.242;10.438;2022-11-22T03:54:44;0.40;99.90
18506;DHT22;9382;53.242;10.438;2022-11-22T03:57:11;0.40;99.90
18506;DHT22;9382;53.242;10.438;2022-11-22T03:59:38;0.50;99.90
18506;DHT22;9382;53.242;10.438;2022-11-22T04:02:04;0.50;99.90
18506;DHT22;9382;53.242;10.438;2022-11-22T04:04:31;0.50;99.90
18506;DHT22;9382;53.242;10.438;2022-11-22T04:06:58;0.50;99.90
18506;DHT22;9382;53.242;10.438;2022-11-22T04:09:26;0.70;99.90
18506;DHT22;9382;53.242;10.438;2022-11-22T04:11:52;0.50;99.90
18506;DHT22;9382;53.242;10.438;2022-11-22T04:14:19;0.50;99.90
18506;DHT22;9382;53.242;10.438;2022-11-22T04:17:03;0.50;99.90
18506;DHT22;9382;53.242;10.438;2022-11-22T04:19:30;0.60;99.90
18506;DHT22;9382;53.242;10.438;2022-11-22T04:21:57;0.60;99.90
18506;DHT22;9382;53.242;10.438;2022-11-22T04:24:23;0.60;99.90
18506;DHT22;9382;53.242;10.438;2022-11-22T04:27:23;0.60;99.90
18506;DHT22;9382;53.242;10.438;2022-11-22T04:29:49;0.60;99.90
18506;DHT22;9382;53.242;10.438;2022-11-22T04:32:16;0.60;99.90
18506;DHT22;9382;53.242;10.438;2022-11-22T04:35:00;0.70;99.90
18506;DHT22;9382;53.242;10.438;2022-11-22T04:37:27;0.70;99.90
18506;DHT22;9382;53.242;10.438;2022-11-22T04:39:54;0.70;99.90
18506;DHT22;9382;53.242;10.438;2022-11-22T04:42:20;0.70;99.90
18506;DHT22;9382;53.242;10.438;2022-11-22T04:45:08;0.70;99.90
18506;DHT22;9382;53.242;10.438;2022-11-22T04:47:35;0.80;99.90
18506;DHT22;9382;53.242;10.438;2022-11-22T04:50:19;0.80;99.90
18506;DHT22;9382;53.242;10.438;2022-11-22T04:53:03;0.80;99.90
18506;DHT22;9382;53.242;10.438;2022-11-22T04:55:30;0.90;99.90
18506;DHT22;9382;53.242;10.438;2022-11-22T04:57:56;0.90;99.90
18506;DHT22;9382;53.242;10.438;2022-11-22T05:00:25;0.90;99.90
18506;DHT22;9382;53.242;10.438;2022-11-22T05:02:52;0.90;99.90
18506;DHT22;9382;53.242;10.438;2022-11-22T05:05:19;0.90;99.90
18506;DHT22;9382;53.242;10.438;2022-11-22T05:07:45;0.90;99.90
18506;DHT22;9382;53.242;10.438;2022-11-22T05:10:12;0.90;99.90
18506;DHT22;9382;53.242;10.438;2022-11-22T05:12:40;0.90;99.90
18506;DHT22;9382;53.242;10.438;2022-11-22T05:15:08;0.90;99.90
18506;DHT22;9382;53.242;10.438;2022-11-22T05:17:36;1.00;99.90
18506;DHT22;9382;53.242;10.438;2022-11-22T05:20:04;0.90;99.90
18506;DHT22;9382;53.242;10.438;2022-11-22T05:22:32;1.00;99.90
18506;DHT22;9382;53.242;10.438;2022-11-22T05:25:17;1.00;99.90
18506;DHT22;9382;53.242;10.438;2022-11-22T05:27:44;1.00;99.90
18506;DHT22;9382;53.242;10.438;2022-11-22T05:30:11;1.00;99.90
18506;DHT22;9382;53.242;10.438;2022-11-22T05:32:39;1.00;99.90
18506;DHT22;9382;53.242;10.438;2022-11-22T05:35:06;1.00;99.90
18506;DHT22;9382;53.242;10.438;2022-11-22T05:37:33;1.00;99.90
18506;DHT22;9382;53.242;10.438;2022-11-22T05:39:59;1.00;99.90
18506;DHT22;9382;53.242;10.438;2022-11-22T05:42:26;1.00;99.90
18506;DHT22;9382;53.242;10.438;2022-11-22T05:44:53;1.00;99.90
18506;DHT22;9382;53.242;10.438;2022-11-22T05:47:20;1.00;99.90
18506;DHT22;9382;53.242;10.438;2022-11-22T05:49:48;1.10;99.90
18506;DHT22;9382;53.242;10.438;2022-11-22T05:52:14;1.10;99.90
18506;DHT22;9382;53.242;10.438;2022-11-22T05:54:41;1.00;99.90
18506;DHT22;9382;53.242;10.438;2022-11-22T05:57:08;1.10;99.90
18506;DHT22;9382;53.242;10.438;2022-11-22T05:59:34;1.10;99.90
18506;DHT22;9382;53.242;10.438;2022-11-22T06:02:01;1.10;99.90
18506;DHT22;9382;53.242;10.438;2022-11-22T06:04:28;1.10;99.90
18506;DHT22;9382;53.242;10.438;2022-11-22T06:06:56;1.10;99.90
18506;DHT22;9382;53.242;10.438;2022-11-22T06:09:23;1.10;99.90
18506;DHT22;9382;53.242;10.438;2022-11-22T06:11:50;1.20;99.90
18506;DHT22;9382;53.242;10.438;2022-11-22T06:14:16;1.20;99.90
18506;DHT22;9382;53.242;10.438;2022-11-22T06:16:43;1.20;99.90
18506;DHT22;9382;53.242;10.438;2022-11-22T06:19:10;1.20;99.90
18506;DHT22;9382;53.242;10.438;2022-11-22T06:21:37;1.20;99.90
18506;DHT22;9382;53.242;10.438;2022-11-22T06:24:06;1.20;99.90
18506;DHT22;9382;53.242;10.438;2022-11-22T06:26:34;1.30;99.90
18506;DHT22;9382;53.242;10.438;2022-11-22T06:29:01;1.20;99.90
18506;DHT22;9382;53.242;10.438;2022-11-22T06:31:28;1.20;99.90
18506;DHT22;9382;53.242;10.438;2022-11-22T06:33:57;1.20;99.90
18506;DHT22;9382;53.242;10.438;2022-11-22T06:36:26;1.20;99.90
18506;DHT22;9382;53.242;10.438;2022-11-22T06:38:53;1.20;99.90
18506;DHT22;9382;53.242;10.438;2022-11-22T06:41:22;1.20;99.90
18506;DHT22;9382;53.242;10.438;2022-11-22T06:43:51;1.20;99.90
18506;DHT22;9382;53.242;10.438;2022-11-22T06:46:19;1.20;99.90
18506;DHT22;9382;53.242;10.438;2022-11-22T06:48:46;1.20;99.90
18506;DHT22;9382;53.242;10.438;2022-11-22T06:51:15;1.20;99.90
18506;DHT22;9382;53.242;10.438;2022-11-22T06:53:42;1.20;99.90
18506;DHT22;9382;53.242;10.438;2022-11-22T06:56:11;1.30;99.90
18506;DHT22;9382;53.242;10.438;2022-11-22T06:58:39;1.30;99.90
18506;DHT22;9382;53.242;10.438;2022-11-22T07:01:08;1.30;99.90
18506;DHT22;9382;53.242;10.438;2022-11-22T07:03:36;1.30;99.90
18506;DHT22;9382;53.242;10.438;2022-11-22T07:06:04;1.30;99.90
18506;DHT22;9382;53.242;10.438;2022-11-22T07:08:30;1.30;99.90
18506;DHT22;9382;53.242;10.438;2022-11-22T07:11:01;1.30;99.90
18506;DHT22;9382;53.242;10.438;2022-11-22T07:13:28;1.30;99.90
18506;DHT22;9382;53.242;10.438;2022-11-22T07:15:57;1.30;99.90
18506;DHT22;9382;53.242;10.438;2022-11-22T07:18:24;1.30;99.90
18506;DHT22;9382;53.242;10.438;2022-11-22T07:20:52;1.30;99.90
18506;DHT22;9382;53.242;10.438;2022-11-22T07:23:18;1.40;99.90
18506;DHT22;9382;53.242;10.438;2022-11-22T07:25:46;1.40;99.90
18506;DHT22;9382;53.242;10.438;2022-11-22T07:28:14;1.40;99.90
18506;DHT22;9382;53.242;10.438;2022-11-22T07:30:41;1.40;99.90
18506;DHT22;9382;53.242;10.438;2022-11-22T07:33:09;1.50;99.90
18506;DHT22;9382;53.242;10.438;2022-11-22T07:35:36;1.50;99.90
18506;DHT22;9382;53.242;10.438;2022-11-22T07:38:03;1.50;99.90
18506;DHT22;9382;53.242;10.438;2022-11-22T07:40:30;1.50;99.90
18506;DHT22;9382;53.242;10.438;2022-11-22T07:42:57;1.50;99.90
18506;DHT22;9382;53.242;10.438;2022-11-22T07:45:23;1.50;99.90
18506;DHT22;9382;53.242;10.438;2022-11-22T07:47:50;1.50;99.90
18506;DHT22;9382;53.242;10.438;2022-11-22T07:50:18;1.50;99.90
18506;DHT22;9382;53.242;10.438;2022-11-22T07:52:45;1.50;99.90
18506;DHT22;9382;53.242;10.438;2022-11-22T07:55:12;1.50;99.90
18506;DHT22;9382;53.242;10.438;2022-11-22T07:57:38;1.60;99.90
18506;DHT22;9382;53.242;10.438;2022-11-22T08:00:06;1.60;99.90
18506;DHT22;9382;53.242;10.438;2022-11-22T08:02:33;1.60;99.90
18506;DHT22;9382;53.242;10.438;2022-11-22T08:05:02;1.60;99.90
18506;DHT22;9382;53.242;10.438;2022-11-22T08:07:30;1.60;99.90
18506;DHT22;9382;53.242;10.438;2022-11-22T08:09:57;1.60;99.90
18506;DHT22;9382;53.242;10.438;2022-11-22T08:12:23;1.60;99.90
18506;DHT22;9382;53.242;10.438;2022-11-22T08:14:50;1.60;99.90
18506;DHT22;9382;53.242;10.438;2022-11-22T08:17:17;1.60;99.90
18506;DHT22;9382;53.242;10.438;2022-11-22T08:19:43;1.50;99.90
18506;DHT22;9382;53.242;10.438;2022-11-22T08:22:10;1.60;99.90
18506;DHT22;9382;53.242;10.438;2022-11-22T08:24:38;1.60;99.90
18506;DHT22;9382;53.242;10.438;2022-11-22T08:27:05;1.60;99.90
18506;DHT22;9382;53.242;10.438;2022-11-22T08:29:31;1.60;99.90
18506;DHT22;9382;53.242;10.438;2022-11-22T08:31:59;1.60;99.90
18506;DHT22;9382;53.242;10.438;2022-11-22T08:34:25;1.60;99.90
18506;DHT22;9382;53.242;10.438;2022-11-22T08:36:52;1.70;99.90
18506;DHT22;9382;53.242;10.438;2022-11-22T08:39:19;1.70;99.90
18506;DHT22;9382;53.242;10.438;2022-11-22T08:41:47;1.70;99.90
18506;DHT22;9382;53.242;10.438;2022-11-22T08:44:14;1.70;99.90
18506;DHT22;9382;53.242;10.438;2022-11-22T08:46:41;1.70;99.90
18506;DHT22;9382;53.242;10.438;2022-11-22T08:49:09;1.80;99.90
18506;DHT22;9382;53.242;10.438;2022-11-22T08:51:36;1.80;99.90
18506;DHT22;9382;53.242;10.438;2022-11-22T08:54:09;1.80;99.90
18506;DHT22;9382;53.242;10.438;2022-11-22T08:56:36;1.80;99.90
18506;DHT22;9382;53.242;10.438;2022-11-22T08:59:04;1.80;99.90
18506;DHT22;9382;53.242;10.438;2022-11-22T09:01:31;1.80;99.90
18506;DHT22;9382;53.242;10.438;2022-11-22T09:03:58;1.80;99.90
18506;DHT22;9382;53.242;10.438;2022-11-22T09:06:24;1.80;99.90
18506;DHT22;9382;53.242;10.438;2022-11-22T09:08:51;1.80;99.90
18506;DHT22;9382;53.242;10.438;2022-11-22T09:11:19;1.90;99.90
18506;DHT22;9382;53.242;10.438;2022-11-22T09:13:46;1.80;99.90
18506;DHT22;9382;53.242;10.438;2022-11-22T09:16:16;1.90;99.90
18506;DHT22;9382;53.242;10.438;2022-11-22T09:18:43;1.90;99.90
18506;DHT22;9382;53.242;10.438;2022-11-22T09:21:11;1.90;99.90
18506;DHT22;9382;53.242;10.438;2022-11-22T09:23:41;1.90;99.90
18506;DHT22;9382;53.242;10.438;2022-11-22T09:26:10;2.00;99.90
18506;DHT22;9382;53.242;10.438;2022-11-22T09:28:37;2.00;99.90
18506;DHT22;9382;53.242;10.438;2022-11-22T09:31:05;2.10;99.90
18506;DHT22;9382;53.242;10.438;2022-11-22T09:33:35;2.10;99.90
18506;DHT22;9382;53.242;10.438;2022-11-22T09:36:04;2.10;99.90
18506;DHT22;9382;53.242;10.438;2022-11-22T09:38:32;2.10;99.90
18506;DHT22;9382;53.242;10.438;2022-11-22T09:41:02;2.10;99.90
18506;DHT22;9382;53.242;10.438;2022-11-22T09:43:40;2.10;99.90
18506;DHT22;9382;53.242;10.438;2022-11-22T09:46:17;2.10;99.90
18506;DHT22;9382;53.242;10.438;2022-11-22T09:49:04;2.10;99.90
18506;DHT22;9382;53.242;10.438;2022-11-22T09:51:38;2.10;99.90
18506;DHT22;9382;53.242;10.438;2022-11-22T09:54:09;2.10;99.90
18506;DHT22;9382;53.242;10.438;2022-11-22T09:56:39;2.10;99.90
18506;DHT22;9382;53.242;10.438;2022-11-22T09:59:11;2.10;99.90
18506;DHT22;9382;53.242;10.438;2022-11-22T10:01:44;2.00;99.90
18506;DHT22;9382;53.242;10.438;2022-11-22T10:04:16;2.10;99.90
18506;DHT22;9382;53.242;10.438;2022-11-22T10:06:49;2.10;99.90
18506;DHT22;9382;53.242;10.438;2022-11-22T10:09:27;2.10;99.90
18506;DHT22;9382;53.242;10.438;2022-11-22T10:11:59;2.10;99.90
18506;DHT22;9382;53.242;10.438;2022-11-22T10:14:35;2.10;99.90
18506;DHT22;9382;53.242;10.438;2022-11-22T10:17:16;2.10;99.90
18506;DHT22;9382;53.242;10.438;2022-11-22T10:19:52;2.10;99.90
18506;DHT22;9382;53.242;10.438;2022-11-22T10:22:22;2.10;99.90
18506;DHT22;9382;53.242;10.438;2022-11-22T10:24:49;2.20;99.90
18506;DHT22;9382;53.242;10.438;2022-11-22T10:27:15;2.20;99.90
18506;DHT22;9382;53.242;10.438;2022-11-22T10:29:47;2.20;99.90
18506;DHT22;9382;53.242;10.438;2022-11-22T10:32:19;2.20;99.90
18506;DHT22;9382;53.242;10.438;2022-11-22T10:35:05;2.20;99.90
18506;DHT22;9382;53.242;10.438;2022-11-22T10:37:38;2.30;99.90
18506;DHT22;9382;53.242;10.438;2022-11-22T10:40:13;2.40;99.90
18506;DHT22;9382;53.242;10.438;2022-11-22T10:43:06;2.40;99.90
18506;DHT22;9382;53.242;10.438;2022-11-22T10:45:42;2.40;99.90
18506;DHT22;9382;53.242;10.438;2022-11-22T10:48:18;2.50;99.90
18506;DHT22;9382;53.242;10.438;2022-11-22T10:50:56;2.50;99.90
18506;DHT22;9382;53.242;10.438;2022-11-22T10:53:35;2.60;99.90
18506;DHT22;9382;53.242;10.438;2022-11-22T10:56:09;2.60;99.90
18506;DHT22;9382;53.242;10.438;2022-11-22T10:58:45;2.70;99.90
18506;DHT22;9382;53.242;10.438;2022-11-22T11:01:21;2.70;99.90
18506;DHT22;9382;53.242;10.438;2022-11-22T11:03:54;2.60;99.90
18506;DHT22;9382;53.242;10.438;2022-11-22T11:06:27;2.60;99.90
18506;DHT22;9382;53.242;10.438;2022-11-22T11:09:02;2.60;99.90
18506;DHT22;9382;53.242;10.438;2022-11-22T11:11:30;2.60;99.90
18506;DHT22;9382;53.242;10.438;2022-11-22T11:13:59;2.60;99.90
18506;DHT22;9382;53.242;10.438;2022-11-22T11:16:30;2.60;99.90
18506;DHT22;9382;53.242;10.438;2022-11-22T11:19:13;2.60;99.90
18506;DHT22;9382;53.242;10.438;2022-11-22T11:21:42;2.70;99.90
18506;DHT22;9382;53.242;10.438;2022-11-22T11:24:12;2.70;99.90
18506;DHT22;9382;53.242;10.438;2022-11-22T11:26:41;2.80;99.90
18506;DHT22;9382;53.242;10.438;2022-11-22T11:29:37;2.80;99.90
18506;DHT22;9382;53.242;10.438;2022-11-22T11:32:12;2.80;99.90
18506;DHT22;9382;53.242;10.438;2022-11-22T11:34:41;2.80;99.90
18506;DHT22;9382;53.242;10.438;2022-11-22T11:37:21;2.80;99.90
18506;DHT22;9382;53.242;10.438;2022-11-22T11:39:48;2.80;99.90
18506;DHT22;9382;53.242;10.438;2022-11-22T11:42:26;2.80;99.90
18506;DHT22;9382;53.242;10.438;2022-11-22T11:44:54;2.80;99.90
18506;DHT22;9382;53.242;10.438;2022-11-22T11:47:40;2.90;99.90
18506;DHT22;9382;53.242;10.438;2022-11-22T11:50:16;2.90;99.90
18506;DHT22;9382;53.242;10.438;2022-11-22T11:52:51;2.90;99.90
18506;DHT22;9382;53.242;10.438;2022-11-22T11:55:19;3.00;99.90
18506;DHT22;9382;53.242;10.438;2022-11-22T11:57:47;3.00;99.90
18506;DHT22;9382;53.242;10.438;2022-11-22T12:00:20;3.00;99.90
18506;DHT22;9382;53.242;10.438;2022-11-22T12:02:56;3.00;99.90
18506;DHT22;9382;53.242;10.438;2022-11-22T12:05:26;3.00;99.90
18506;DHT22;9382;53.242;10.438;2022-11-22T12:07:55;3.00;99.90
18506;DHT22;9382;53.242;10.438;2022-11-22T12:10:34;3.10;99.90
18506;DHT22;9382;53.242;10.438;2022-11-22T12:13:12;3.10;99.90
18506;DHT22;9382;53.242;10.438;2022-11-22T12:15:50;3.10;99.90
18506;DHT22;9382;53.242;10.438;2022-11-22T12:18:36;3.00;99.90
18506;DHT22;9382;53.242;10.438;2022-11-22T12:21:12;3.10;99.90
18506;DHT22;9382;53.242;10.438;2022-11-22T12:23:46;3.10;99.90
18506;DHT22;9382;53.242;10.438;2022-11-22T12:26:16;3.00;99.90
18506;DHT22;9382;53.242;10.438;2022-11-22T12:28:43;3.00;99.90
18506;DHT22;9382;53.242;10.438;2022-11-22T12:31:16;3.00;99.90
18506;DHT22;9382;53.242;10.438;2022-11-22T12:33:49;3.00;99.90
18506;DHT22;9382;53.242;10.438;2022-11-22T12:36:19;3.10;99.90
18506;DHT22;9382;53.242;10.438;2022-11-22T12:38:49;3.20;99.90
18506;DHT22;9382;53.242;10.438;2022-11-22T12:41:18;3.20;99.90
18506;DHT22;9382;53.242;10.438;2022-11-22T12:43:49;3.30;99.90
18506;DHT22;9382;53.242;10.438;2022-11-22T12:46:20;3.30;99.90
18506;DHT22;9382;53.242;10.438;2022-11-22T12:48:50;3.30;99.90
18506;DHT22;9382;53.242;10.438;2022-11-22T12:51:22;3.30;99.90
18506;DHT22;9382;53.242;10.438;2022-11-22T12:53:52;3.30;99.90
18506;DHT22;9382;53.242;10.438;2022-11-22T12:56:24;3.30;99.90
18506;DHT22;9382;53.242;10.438;2022-11-22T12:58:59;3.30;99.90
18506;DHT22;9382;53.242;10.438;2022-11-22T13:01:31;3.30;99.90
18506;DHT22;9382;53.242;10.438;2022-11-22T13:04:02;3.30;99.90
18506;DHT22;9382;53.242;10.438;2022-11-22T13:06:37;3.20;99.90
18506;DHT22;9382;53.242;10.438;2022-11-22T13:09:11;3.20;99.90
18506;DHT22;9382;53.242;10.438;2022-11-22T13:11:45;3.20;99.90
18506;DHT22;9382;53.242;10.438;2022-11-22T13:14:16;3.20;99.90
18506;DHT22;9382;53.242;10.438;2022-11-22T13:16:43;3.20;99.90
18506;DHT22;9382;53.242;10.438;2022-11-22T13:19:12;3.20;99.90
18506;DHT22;9382;53.242;10.438;2022-11-22T13:21:48;3.20;99.90
18506;DHT22;9382;53.242;10.438;2022-11-22T13:24:39;3.20;99.90
18506;DHT22;9382;53.242;10.438;2022-11-22T13:27:13;3.20;99.90
18506;DHT22;9382;53.242;10.438;2022-11-22T13:29:43;3.20;99.90
18506;DHT22;9382;53.242;10.438;2022-11-22T13:32:18;3.20;99.90
18506;DHT22;9382;53.242;10.438;2022-11-22T13:35:18;3.20;99.90
18506;DHT22;9382;53.242;10.438;2022-11-22T13:37:49;3.20;99.90
18506;DHT22;9382;53.242;10.438;2022-11-22T13:40:25;3.10;99.90
18506;DHT22;9382;53.242;10.438;2022-11-22T13:43:31;3.10;99.90
18506;DHT22;9382;53.242;10.438;2022-11-22T13:45:59;3.10;99.90
18506;DHT22;9382;53.242;10.438;2022-11-22T13:51:48;3.10;99.90
18506;DHT22;9382;53.242;10.438;2022-11-22T13:57:26;3.10;99.90
18506;DHT22;9382;53.242;10.438;2022-11-22T14:03:19;3.10;99.90
18506;DHT22;9382;53.242;10.438;2022-11-22T14:05:47;3.10;99.90
18506;DHT22;9382;53.242;10.438;2022-11-22T14:08:27;3.10;99.90
18506;DHT22;9382;53.242;10.438;2022-11-22T14:11:09;3.10;99.90
18506;DHT22;9382;53.242;10.438;2022-11-22T14:13:47;3.10;99.90
18506;DHT22;9382;53.242;10.438;2022-11-22T14:16:40;3.10;99.90
18506;DHT22;9382;53.242;10.438;2022-11-22T14:19:19;3.10;99.90
18506;DHT22;9382;53.242;10.438;2022-11-22T14:22:06;3.00;99.90
18506;DHT22;9382;53.242;10.438;2022-11-22T14:24:53;3.00;99.90
18506;DHT22;9382;53.242;10.438;2022-11-22T14:27:29;3.00;99.90
18506;DHT22;9382;53.242;10.438;2022-11-22T14:30:11;3.00;99.90
18506;DHT22;9382;53.242;10.438;2022-11-22T14:32:46;3.00;99.90
18506;DHT22;9382;53.242;10.438;2022-11-22T14:35:18;2.90;99.90
18506;DHT22;9382;53.242;10.438;2022-11-22T14:37:52;2.90;99.90
18506;DHT22;9382;53.242;10.438;2022-11-22T14:40:31;2.90;99.90
18506;DHT22;9382;53.242;10.438;2022-11-22T14:43:00;2.90;99.90
18506;DHT22;9382;53.242;10.438;2022-11-22T14:45:40;2.80;99.90
18506;DHT22;9382;53.242;10.438;2022-11-22T14:48:18;2.80;99.90
18506;DHT22;9382;53.242;10.438;2022-11-22T14:50:51;2.80;99.90
18506;DHT22;9382;53.242;10.438;2022-11-22T14:53:29;2.80;99.90
18506;DHT22;9382;53.242;10.438;2022-11-22T14:56:03;2.70;99.90
18506;DHT22;9382;53.242;10.438;2022-11-22T14:58:34;2.70;99.90
18506;DHT22;9382;53.242;10.438;2022-11-22T15:01:26;2.70;99.90
18506;DHT22;9382;53.242;10.438;2022-11-22T15:04:31;2.70;99.90
18506;DHT22;9382;53.242;10.438;2022-11-22T15:07:07;2.60;99.90
18506;DHT22;9382;53.242;10.438;2022-11-22T15:09:49;2.60;99.90
18506;DHT22;9382;53.242;10.438;2022-11-22T15:12:37;2.60;99.90
18506;DHT22;9382;53.242;10.438;2022-11-22T15:15:30;2.50;99.90
18506;DHT22;9382;53.242;10.438;2022-11-22T15:18:13;2.50;99.90
18506;DHT22;9382;53.242;10.438;2022-11-22T15:20:42;2.50;99.90
18506;DHT22;9382;53.242;10.438;2022-11-22T15:23:14;2.50;99.90
18506;DHT22;9382;53.242;10.438;2022-11-22T15:25:41;2.50;99.90
18506;DHT22;9382;53.242;10.438;2022-11-22T15:28:13;2.50;99.90
18506;DHT22;9382;53.242;10.438;2022-11-22T15:30:40;2.50;99.90
18506;DHT22;9382;53.242;10.438;2022-11-22T15:33:26;2.50;99.90
18506;DHT22;9382;53.242;10.438;2022-11-22T15:36:05;2.50;99.90
18506;DHT22;9382;53.242;10.438;2022-11-22T15:38:34;2.50;99.90
18506;DHT22;9382;53.242;10.438;2022-11-22T15:41:05;2.50;99.90
18506;DHT22;9382;53.242;10.438;2022-11-22T15:43:32;2.50;99.90
18506;DHT22;9382;53.242;10.438;2022-11-22T15:45:59;2.50;99.90
18506;DHT22;9382;53.242;10.438;2022-11-22T15:48:31;2.50;99.90
18506;DHT22;9382;53.242;10.438;2022-11-22T15:51:17;2.40;99.90
18506;DHT22;9382;53.242;10.438;2022-11-22T15:53:58;2.30;99.90
18506;DHT22;9382;53.242;10.438;2022-11-22T15:56:30;2.20;99.90
18506;DHT22;9382;53.242;10.438;2022-11-22T15:58:57;2.10;99.90
18506;DHT22;9382;53.242;10.438;2022-11-22T16:01:25;2.00;99.90
18506;DHT22;9382;53.242;10.438;2022-11-22T16:03:55;1.90;99.90
18506;DHT22;9382;53.242;10.438;2022-11-22T16:06:24;1.80;99.90
18506;DHT22;9382;53.242;10.438;2022-11-22T16:08:53;1.70;99.90
18506;DHT22;9382;53.242;10.438;2022-11-22T16:11:25;1.70;99.90
18506;DHT22;9382;53.242;10.438;2022-11-22T16:13:52;1.60;99.90
18506;DHT22;9382;53.242;10.438;2022-11-22T16:16:24;1.50;99.90